KAUSKMRF

Guest
Details From KAUS - Austin Bergstrom Intl
To KMRF - Marfa Muni
Flight Number -
Tags Decoded
Created
Modified
Stats Distance 330 nm / 612 km
Max Altitude 0 ft / 0 m
Waypoints 2
Social Downloads 3
Likes 0
Share VATSIM

Download

Looking for another format? Having issues loading an existing format? Contact us
Advertisement - Login to hide

Notes

Decoded

Route

KAUS KMRF

ID Type Via Altitude Latitude Longitude Leg Dist Tot Dist Heading (true) Name
O KAUS APT - 0 ft / 0 m 30.20383˚ -97.65789˚ - 0 nm - -
O KMRF APT - 0 ft / 0 m 30.36960˚ -104.02574˚ 330 nm 330 nm 273° / 270° -

Altitude Profile

Advertisement - Login to hide

Weather


0- 5 10 15 20 25 30 35+ Temperature / ° C

Clouds and Precipitation
Forecast for 2017-12-12 12:00 UTC. Updated an hour ago

Ground ~20,000 ft ~40,000 ft Winds

KAUS

Details ICAO KAUS (AUS)
Name Austin Bergstrom Intl
Region United States
Timezone America/Chicago (UTC-6.0)
Stats Elevation 542 ft / 165 m (AMSL)
Location 30.194121° -97.668244°
Runways 2
Magnetic Variation 3.811° E

METAR

KAUS 120753Z 26005KT 10SM SCT200 09/02 A3022 RMK AO2 SLP231 T00940022

Decode

TAF

KAUS 120529Z 1206/1312 25005KT P6SM SCT200 FM120800 35012KT P6SM FEW250

Decode

Departure Runways

ID Width Length Bearing (true) Bearing (mag) Surface Threshold Offset Overrun Length
17L 151 ft / 46 m 9,030 ft / 2,752 m 178.70° 174.89° Concrete 0 ft / 0 m 390 ft / 119 m
17R 151 ft / 46 m 12,289 ft / 3,746 m 178.69° 174.88° Concrete 0 ft / 0 m 1,001 ft / 305 m
35L 151 ft / 46 m 12,289 ft / 3,746 m 358.69° 354.88° Concrete 0 ft / 0 m 1,001 ft / 305 m
35R 151 ft / 46 m 9,030 ft / 2,752 m 358.70° 354.89° Concrete 0 ft / 0 m 390 ft / 119 m

KMRF

Details ICAO KMRF
Name MARFA MUNI
Region United States
Timezone America/Chicago (UTC-6.0)
Stats Elevation 4,849 ft / 1,478 m (AMSL)
Location 30.370815° -104.018113°
Runways 3
Magnetic Variation 6.996° E

METAR

KMRF 120756Z AUTO 35004KT 10SM CLR M03/M05 A3039 RMK AO2 SLP289 T10331050 FZRANO

Decode

TAF

Not found

Destination Runways

ID Width Length Bearing (true) Bearing (mag) Surface Threshold Offset Overrun Length
04 75 ft / 23 m 5,311 ft / 1,619 m 45.15° 38.15° Asphalt 0 ft / 0 m 0 ft / 0 m
09 60 ft / 18 m 2,799 ft / 853 m 90.00° 83.00° Dirt 0 ft / 0 m 0 ft / 0 m
13 75 ft / 23 m 6,218 ft / 1,895 m 135.45° 128.45° Asphalt 0 ft / 0 m 0 ft / 0 m
22 75 ft / 23 m 5,311 ft / 1,619 m 225.16° 218.16° Asphalt 0 ft / 0 m 0 ft / 0 m
27 60 ft / 18 m 2,799 ft / 853 m 270.00° 263.00° Dirt 0 ft / 0 m 0 ft / 0 m
31 75 ft / 23 m 6,218 ft / 1,895 m 315.46° 308.46° Asphalt 0 ft / 0 m 299 ft / 91 m

Popular Alternatives